sensor_id;sensor_type;location;lat;lon;timestamp;temperature;humidity
48515;DHT22;34309;47.260;2.796;2022-08-19T00:01:30;25.70;33.30
48515;DHT22;34309;47.260;2.796;2022-08-19T00:04:00;25.80;33.40
48515;DHT22;34309;47.260;2.796;2022-08-19T00:06:28;25.80;33.10
48515;DHT22;34309;47.260;2.796;2022-08-19T00:08:55;25.70;33.10
48515;DHT22;34309;47.260;2.796;2022-08-19T00:11:21;25.80;33.00
48515;DHT22;34309;47.260;2.796;2022-08-19T00:13:47;25.70;32.90
48515;DHT22;34309;47.260;2.796;2022-08-19T00:16:16;25.80;33.00
48515;DHT22;34309;47.260;2.796;2022-08-19T00:18:44;25.80;33.00
48515;DHT22;34309;47.260;2.796;2022-08-19T00:21:10;25.80;33.00
48515;DHT22;34309;47.260;2.796;2022-08-19T00:23:36;25.80;33.70
48515;DHT22;34309;47.260;2.796;2022-08-19T00:26:04;25.70;32.90
48515;DHT22;34309;47.260;2.796;2022-08-19T00:28:31;25.70;32.90
48515;DHT22;34309;47.260;2.796;2022-08-19T00:30:59;25.70;33.10
48515;DHT22;34309;47.260;2.796;2022-08-19T00:33:25;25.70;32.90
48515;DHT22;34309;47.260;2.796;2022-08-19T00:35:51;25.70;32.70
48515;DHT22;34309;47.260;2.796;2022-08-19T00:38:17;25.70;32.80
48515;DHT22;34309;47.260;2.796;2022-08-19T00:40:43;25.70;32.80
48515;DHT22;34309;47.260;2.796;2022-08-19T00:43:13;25.70;33.10
48515;DHT22;34309;47.260;2.796;2022-08-19T00:45:39;25.70;32.70
48515;DHT22;34309;47.260;2.796;2022-08-19T00:48:08;25.70;32.80
48515;DHT22;34309;47.260;2.796;2022-08-19T00:50:34;25.70;32.70
48515;DHT22;34309;47.260;2.796;2022-08-19T00:53:00;25.70;32.70
48515;DHT22;34309;47.260;2.796;2022-08-19T00:55:30;25.70;32.50
48515;DHT22;34309;47.260;2.796;2022-08-19T00:58:10;25.70;32.70
48515;DHT22;34309;47.260;2.796;2022-08-19T01:00:37;25.70;32.70
48515;DHT22;34309;47.260;2.796;2022-08-19T01:03:07;25.70;32.70
48515;DHT22;34309;47.260;2.796;2022-08-19T01:05:34;25.70;32.60
48515;DHT22;34309;47.260;2.796;2022-08-19T01:08:02;25.70;32.50
48515;DHT22;34309;47.260;2.796;2022-08-19T01:10:31;25.70;32.50
48515;DHT22;34309;47.260;2.796;2022-08-19T01:12:58;25.70;32.50
48515;DHT22;34309;47.260;2.796;2022-08-19T01:15:32;25.70;32.50
48515;DHT22;34309;47.260;2.796;2022-08-19T01:18:02;25.70;32.90
48515;DHT22;34309;47.260;2.796;2022-08-19T01:20:29;25.70;32.50
48515;DHT22;34309;47.260;2.796;2022-08-19T01:22:58;25.70;32.40
48515;DHT22;34309;47.260;2.796;2022-08-19T01:25:31;25.70;32.50
48515;DHT22;34309;47.260;2.796;2022-08-19T01:27:58;25.70;32.40
48515;DHT22;34309;47.260;2.796;2022-08-19T01:30:30;25.70;32.40
48515;DHT22;34309;47.260;2.796;2022-08-19T01:32:58;25.70;32.60
48515;DHT22;34309;47.260;2.796;2022-08-19T01:35:28;25.70;32.60
48515;DHT22;34309;47.260;2.796;2022-08-19T01:37:59;25.70;32.30
48515;DHT22;34309;47.260;2.796;2022-08-19T01:40:30;25.70;32.40
48515;DHT22;34309;47.260;2.796;2022-08-19T01:42:57;25.60;32.40
48515;DHT22;34309;47.260;2.796;2022-08-19T01:45:25;25.70;33.20
48515;DHT22;34309;47.260;2.796;2022-08-19T01:47:51;25.60;32.70
48515;DHT22;34309;47.260;2.796;2022-08-19T01:50:17;25.60;32.40
48515;DHT22;34309;47.260;2.796;2022-08-19T01:52:43;25.60;32.40
48515;DHT22;34309;47.260;2.796;2022-08-19T01:55:13;25.60;32.30
48515;DHT22;34309;47.260;2.796;2022-08-19T01:57:42;25.70;32.20
48515;DHT22;34309;47.260;2.796;2022-08-19T02:00:11;25.60;32.20
48515;DHT22;34309;47.260;2.796;2022-08-19T02:02:38;25.60;32.40
48515;DHT22;34309;47.260;2.796;2022-08-19T02:05:04;25.60;32.30
48515;DHT22;34309;47.260;2.796;2022-08-19T02:07:32;25.60;32.30
48515;DHT22;34309;47.260;2.796;2022-08-19T02:09:58;25.60;32.50
48515;DHT22;34309;47.260;2.796;2022-08-19T02:12:24;25.60;32.40
48515;DHT22;34309;47.260;2.796;2022-08-19T02:14:50;25.60;32.30
48515;DHT22;34309;47.260;2.796;2022-08-19T02:17:15;25.60;32.30
48515;DHT22;34309;47.260;2.796;2022-08-19T02:19:41;25.60;32.20
48515;DHT22;34309;47.260;2.796;2022-08-19T02:22:07;25.60;32.20
48515;DHT22;34309;47.260;2.796;2022-08-19T02:24:32;25.60;32.30
48515;DHT22;34309;47.260;2.796;2022-08-19T02:26:58;25.60;32.30
48515;DHT22;34309;47.260;2.796;2022-08-19T02:29:24;25.60;32.50
48515;DHT22;34309;47.260;2.796;2022-08-19T02:31:50;25.60;32.60
48515;DHT22;34309;47.260;2.796;2022-08-19T02:34:16;25.60;32.50
48515;DHT22;34309;47.260;2.796;2022-08-19T02:36:42;25.60;32.30
48515;DHT22;34309;47.260;2.796;2022-08-19T02:39:08;25.60;32.20
48515;DHT22;34309;47.260;2.796;2022-08-19T02:41:34;25.50;32.70
48515;DHT22;34309;47.260;2.796;2022-08-19T02:44:03;25.60;32.70
48515;DHT22;34309;47.260;2.796;2022-08-19T02:46:31;25.50;32.30
48515;DHT22;34309;47.260;2.796;2022-08-19T02:49:00;25.60;32.60
48515;DHT22;34309;47.260;2.796;2022-08-19T02:51:32;25.50;32.30
48515;DHT22;34309;47.260;2.796;2022-08-19T02:53:58;25.50;32.40
48515;DHT22;34309;47.260;2.796;2022-08-19T02:56:25;25.50;32.60
48515;DHT22;34309;47.260;2.796;2022-08-19T02:58:53;25.50;32.40
48515;DHT22;34309;47.260;2.796;2022-08-19T03:01:31;25.50;32.80
48515;DHT22;34309;47.260;2.796;2022-08-19T03:04:05;25.50;32.40
48515;DHT22;34309;47.260;2.796;2022-08-19T03:06:31;25.50;32.50
48515;DHT22;34309;47.260;2.796;2022-08-19T03:08:57;25.50;32.50
48515;DHT22;34309;47.260;2.796;2022-08-19T03:11:28;25.50;32.60
48515;DHT22;34309;47.260;2.796;2022-08-19T03:13:54;25.50;32.40
48515;DHT22;34309;47.260;2.796;2022-08-19T03:16:25;25.50;32.70
48515;DHT22;34309;47.260;2.796;2022-08-19T03:18:51;25.50;32.60
48515;DHT22;34309;47.260;2.796;2022-08-19T03:21:21;25.50;32.60
48515;DHT22;34309;47.260;2.796;2022-08-19T03:23:47;25.50;32.40
48515;DHT22;34309;47.260;2.796;2022-08-19T03:26:13;25.50;32.50
48515;DHT22;34309;47.260;2.796;2022-08-19T03:28:41;25.50;32.60
48515;DHT22;34309;47.260;2.796;2022-08-19T03:31:11;25.50;32.20
48515;DHT22;34309;47.260;2.796;2022-08-19T03:33:37;25.50;32.30
48515;DHT22;34309;47.260;2.796;2022-08-19T03:36:18;25.50;32.30
48515;DHT22;34309;47.260;2.796;2022-08-19T03:38:47;25.50;32.30
48515;DHT22;34309;47.260;2.796;2022-08-19T03:41:17;25.50;32.60
48515;DHT22;34309;47.260;2.796;2022-08-19T03:43:44;25.50;32.30
48515;DHT22;34309;47.260;2.796;2022-08-19T03:46:16;25.50;32.60
48515;DHT22;34309;47.260;2.796;2022-08-19T03:48:43;25.50;32.60
48515;DHT22;34309;47.260;2.796;2022-08-19T03:53:46;25.50;32.50
48515;DHT22;34309;47.260;2.796;2022-08-19T03:56:12;25.50;32.70
48515;DHT22;34309;47.260;2.796;2022-08-19T03:58:39;25.40;32.70
48515;DHT22;34309;47.260;2.796;2022-08-19T04:01:10;25.40;32.50
48515;DHT22;34309;47.260;2.796;2022-08-19T04:03:37;25.50;32.50
48515;DHT22;34309;47.260;2.796;2022-08-19T04:06:30;25.50;32.50
48515;DHT22;34309;47.260;2.796;2022-08-19T04:08:58;25.40;32.30
48515;DHT22;34309;47.260;2.796;2022-08-19T04:11:27;25.40;32.30
48515;DHT22;34309;47.260;2.796;2022-08-19T04:13:55;25.40;32.40
48515;DHT22;34309;47.260;2.796;2022-08-19T04:16:23;25.40;32.20
48515;DHT22;34309;47.260;2.796;2022-08-19T04:18:49;25.40;32.40
48515;DHT22;34309;47.260;2.796;2022-08-19T04:21:21;25.40;32.40
48515;DHT22;34309;47.260;2.796;2022-08-19T04:23:47;25.40;32.20
48515;DHT22;34309;47.260;2.796;2022-08-19T04:26:21;25.40;32.20
48515;DHT22;34309;47.260;2.796;2022-08-19T04:28:47;25.40;32.10
48515;DHT22;34309;47.260;2.796;2022-08-19T04:31:18;25.40;32.10
48515;DHT22;34309;47.260;2.796;2022-08-19T04:33:44;25.40;32.20
48515;DHT22;34309;47.260;2.796;2022-08-19T04:36:21;25.40;32.10
48515;DHT22;34309;47.260;2.796;2022-08-19T04:38:49;25.40;32.00
48515;DHT22;34309;47.260;2.796;2022-08-19T04:41:15;25.40;32.00
48515;DHT22;34309;47.260;2.796;2022-08-19T04:44:00;25.40;31.90
48515;DHT22;34309;47.260;2.796;2022-08-19T04:46:26;25.40;32.20
48515;DHT22;34309;47.260;2.796;2022-08-19T04:48:53;25.40;31.90
48515;DHT22;34309;47.260;2.796;2022-08-19T04:51:19;25.40;32.10
48515;DHT22;34309;47.260;2.796;2022-08-19T04:53:46;25.40;32.30
48515;DHT22;34309;47.260;2.796;2022-08-19T04:56:14;25.40;32.20
48515;DHT22;34309;47.260;2.796;2022-08-19T04:58:42;25.40;31.90
48515;DHT22;34309;47.260;2.796;2022-08-19T05:01:14;25.40;32.00
48515;DHT22;34309;47.260;2.796;2022-08-19T05:03:40;25.30;32.00
48515;DHT22;34309;47.260;2.796;2022-08-19T05:06:08;25.30;32.00
48515;DHT22;34309;47.260;2.796;2022-08-19T05:08:37;25.30;31.80
48515;DHT22;34309;47.260;2.796;2022-08-19T05:11:16;25.30;32.00
48515;DHT22;34309;47.260;2.796;2022-08-19T05:13:43;25.30;31.90
48515;DHT22;34309;47.260;2.796;2022-08-19T05:16:12;25.30;32.00
48515;DHT22;34309;47.260;2.796;2022-08-19T05:18:39;25.30;32.10
48515;DHT22;34309;47.260;2.796;2022-08-19T05:21:26;25.30;32.00
48515;DHT22;34309;47.260;2.796;2022-08-19T05:24:11;25.30;32.20
48515;DHT22;34309;47.260;2.796;2022-08-19T05:26:39;25.30;31.90
48515;DHT22;34309;47.260;2.796;2022-08-19T05:29:06;25.30;32.00
48515;DHT22;34309;47.260;2.796;2022-08-19T05:31:33;25.30;32.00
48515;DHT22;34309;47.260;2.796;2022-08-19T05:34:01;25.30;32.10
48515;DHT22;34309;47.260;2.796;2022-08-19T05:36:28;25.30;32.00
48515;DHT22;34309;47.260;2.796;2022-08-19T05:38:54;25.30;32.10
48515;DHT22;34309;47.260;2.796;2022-08-19T05:41:21;25.30;31.90
48515;DHT22;34309;47.260;2.796;2022-08-19T05:43:52;25.30;32.10
48515;DHT22;34309;47.260;2.796;2022-08-19T05:46:19;25.30;32.10
48515;DHT22;34309;47.260;2.796;2022-08-19T05:48:46;25.30;32.00
48515;DHT22;34309;47.260;2.796;2022-08-19T05:51:12;25.30;32.00
48515;DHT22;34309;47.260;2.796;2022-08-19T05:53:38;25.30;32.10
48515;DHT22;34309;47.260;2.796;2022-08-19T05:56:12;25.30;32.10
48515;DHT22;34309;47.260;2.796;2022-08-19T05:58:38;25.30;32.00
48515;DHT22;34309;47.260;2.796;2022-08-19T06:01:10;25.30;32.20
48515;DHT22;34309;47.260;2.796;2022-08-19T06:03:37;25.30;32.00
48515;DHT22;34309;47.260;2.796;2022-08-19T06:06:04;25.30;32.20
48515;DHT22;34309;47.260;2.796;2022-08-19T06:08:31;25.30;32.00
48515;DHT22;34309;47.260;2.796;2022-08-19T06:10:57;25.30;32.20
48515;DHT22;34309;47.260;2.796;2022-08-19T06:13:23;25.30;31.90
48515;DHT22;34309;47.260;2.796;2022-08-19T06:15:49;25.20;31.90
48515;DHT22;34309;47.260;2.796;2022-08-19T06:18:15;25.20;31.90
48515;DHT22;34309;47.260;2.796;2022-08-19T06:20:42;25.20;31.80
48515;DHT22;34309;47.260;2.796;2022-08-19T06:23:08;25.30;31.80
48515;DHT22;34309;47.260;2.796;2022-08-19T06:25:34;25.20;31.90
48515;DHT22;34309;47.260;2.796;2022-08-19T06:28:00;25.20;32.00
48515;DHT22;34309;47.260;2.796;2022-08-19T06:30:26;25.20;31.80
48515;DHT22;34309;47.260;2.796;2022-08-19T06:32:53;25.20;32.60
48515;DHT22;34309;47.260;2.796;2022-08-19T06:35:18;25.20;32.10
48515;DHT22;34309;47.260;2.796;2022-08-19T06:37:44;25.20;32.60
48515;DHT22;34309;47.260;2.796;2022-08-19T06:40:11;25.20;32.50
48515;DHT22;34309;47.260;2.796;2022-08-19T06:42:38;25.20;32.50
48515;DHT22;34309;47.260;2.796;2022-08-19T06:45:05;25.20;32.60
48515;DHT22;34309;47.260;2.796;2022-08-19T06:47:31;25.20;32.90
48515;DHT22;34309;47.260;2.796;2022-08-19T06:49:59;25.20;32.70
48515;DHT22;34309;47.260;2.796;2022-08-19T06:52:25;25.20;32.70
48515;DHT22;34309;47.260;2.796;2022-08-19T06:54:51;25.20;32.80
48515;DHT22;34309;47.260;2.796;2022-08-19T06:57:17;25.20;33.00
48515;DHT22;34309;47.260;2.796;2022-08-19T06:59:42;25.20;33.60
48515;DHT22;34309;47.260;2.796;2022-08-19T07:02:08;25.20;32.90
48515;DHT22;34309;47.260;2.796;2022-08-19T07:04:35;25.20;33.00
48515;DHT22;34309;47.260;2.796;2022-08-19T07:07:06;25.20;33.00
48515;DHT22;34309;47.260;2.796;2022-08-19T07:09:33;25.20;33.00
48515;DHT22;34309;47.260;2.796;2022-08-19T07:11:59;25.20;33.20
48515;DHT22;34309;47.260;2.796;2022-08-19T07:14:26;25.20;33.10
48515;DHT22;34309;47.260;2.796;2022-08-19T07:16:54;25.20;33.30
48515;DHT22;34309;47.260;2.796;2022-08-19T07:19:23;25.20;33.20
48515;DHT22;34309;47.260;2.796;2022-08-19T07:21:50;25.20;33.20
48515;DHT22;34309;47.260;2.796;2022-08-19T07:24:24;25.20;33.20
48515;DHT22;34309;47.260;2.796;2022-08-19T07:26:51;25.20;33.30
48515;DHT22;34309;47.260;2.796;2022-08-19T07:29:18;25.20;33.30
48515;DHT22;34309;47.260;2.796;2022-08-19T07:31:44;25.20;33.50
48515;DHT22;34309;47.260;2.796;2022-08-19T07:34:11;25.20;33.50
48515;DHT22;34309;47.260;2.796;2022-08-19T07:36:41;25.20;33.70
48515;DHT22;34309;47.260;2.796;2022-08-19T07:39:20;25.20;33.50
48515;DHT22;34309;47.260;2.796;2022-08-19T07:41:47;25.20;33.40
48515;DHT22;34309;47.260;2.796;2022-08-19T07:44:14;25.20;33.50
48515;DHT22;34309;47.260;2.796;2022-08-19T07:46:44;25.20;33.50
48515;DHT22;34309;47.260;2.796;2022-08-19T07:49:12;25.20;33.50
48515;DHT22;34309;47.260;2.796;2022-08-19T07:51:43;25.20;33.60
48515;DHT22;34309;47.260;2.796;2022-08-19T07:54:09;25.20;33.80
48515;DHT22;34309;47.260;2.796;2022-08-19T07:56:35;25.20;33.80
48515;DHT22;34309;47.260;2.796;2022-08-19T07:59:00;25.20;33.70
48515;DHT22;34309;47.260;2.796;2022-08-19T08:01:27;25.20;33.90
48515;DHT22;34309;47.260;2.796;2022-08-19T08:03:54;25.20;33.80
48515;DHT22;34309;47.260;2.796;2022-08-19T08:06:39;25.20;33.90
48515;DHT22;34309;47.260;2.796;2022-08-19T08:09:30;25.20;33.80
48515;DHT22;34309;47.260;2.796;2022-08-19T08:12:02;25.20;34.00
48515;DHT22;34309;47.260;2.796;2022-08-19T08:14:45;25.20;34.10
48515;DHT22;34309;47.260;2.796;2022-08-19T08:17:14;25.10;33.90
48515;DHT22;34309;47.260;2.796;2022-08-19T08:19:41;25.20;34.30
48515;DHT22;34309;47.260;2.796;2022-08-19T08:22:08;25.20;33.90
48515;DHT22;34309;47.260;2.796;2022-08-19T08:24:53;25.20;34.00
48515;DHT22;34309;47.260;2.796;2022-08-19T08:27:20;25.20;34.20
48515;DHT22;34309;47.260;2.796;2022-08-19T08:29:45;25.10;34.00
48515;DHT22;34309;47.260;2.796;2022-08-19T08:32:11;25.20;34.10
48515;DHT22;34309;47.260;2.796;2022-08-19T08:34:36;25.20;34.20
48515;DHT22;34309;47.260;2.796;2022-08-19T08:37:02;25.20;34.20
48515;DHT22;34309;47.260;2.796;2022-08-19T08:39:28;25.20;34.30
48515;DHT22;34309;47.260;2.796;2022-08-19T08:42:08;25.20;34.50
48515;DHT22;34309;47.260;2.796;2022-08-19T08:44:51;25.20;34.10
48515;DHT22;34309;47.260;2.796;2022-08-19T08:47:20;25.20;34.20
48515;DHT22;34309;47.260;2.796;2022-08-19T08:49:57;25.20;34.40
48515;DHT22;34309;47.260;2.796;2022-08-19T08:52:31;25.20;34.60
48515;DHT22;34309;47.260;2.796;2022-08-19T08:55:05;25.10;34.70
48515;DHT22;34309;47.260;2.796;2022-08-19T08:57:56;25.10;34.30
48515;DHT22;34309;47.260;2.796;2022-08-19T09:00:33;25.10;34.50
48515;DHT22;34309;47.260;2.796;2022-08-19T09:03:00;25.10;34.80
48515;DHT22;34309;47.260;2.796;2022-08-19T09:08:38;25.10;34.40
48515;DHT22;34309;47.260;2.796;2022-08-19T09:11:09;25.20;34.70
48515;DHT22;34309;47.260;2.796;2022-08-19T09:16:21;25.10;34.70
48515;DHT22;34309;47.260;2.796;2022-08-19T09:18:55;25.10;34.60
48515;DHT22;34309;47.260;2.796;2022-08-19T09:21:24;25.10;34.80
48515;DHT22;34309;47.260;2.796;2022-08-19T09:23:51;25.10;35.70
48515;DHT22;34309;47.260;2.796;2022-08-19T09:26:19;25.10;35.00
48515;DHT22;34309;47.260;2.796;2022-08-19T09:28:47;25.10;34.90
48515;DHT22;34309;47.260;2.796;2022-08-19T09:31:16;25.10;34.90
48515;DHT22;34309;47.260;2.796;2022-08-19T09:33:42;25.10;35.10
48515;DHT22;34309;47.260;2.796;2022-08-19T09:36:13;25.10;35.00
48515;DHT22;34309;47.260;2.796;2022-08-19T09:38:40;25.10;34.90
48515;DHT22;34309;47.260;2.796;2022-08-19T09:41:17;25.10;35.20
48515;DHT22;34309;47.260;2.796;2022-08-19T09:43:48;25.10;35.10
48515;DHT22;34309;47.260;2.796;2022-08-19T09:46:14;25.10;35.30
48515;DHT22;34309;47.260;2.796;2022-08-19T09:48:42;25.10;35.20
48515;DHT22;34309;47.260;2.796;2022-08-19T09:51:12;25.10;35.20
48515;DHT22;34309;47.260;2.796;2022-08-19T09:53:41;25.10;35.30
48515;DHT22;34309;47.260;2.796;2022-08-19T09:56:08;25.10;35.20
48515;DHT22;34309;47.260;2.796;2022-08-19T09:58:34;25.10;35.20
48515;DHT22;34309;47.260;2.796;2022-08-19T10:01:02;25.10;35.00
48515;DHT22;34309;47.260;2.796;2022-08-19T10:03:29;25.10;35.00
48515;DHT22;34309;47.260;2.796;2022-08-19T10:05:57;25.10;35.10
48515;DHT22;34309;47.260;2.796;2022-08-19T10:08:26;25.10;35.20
48515;DHT22;34309;47.260;2.796;2022-08-19T10:10:52;25.10;35.30
48515;DHT22;34309;47.260;2.796;2022-08-19T10:13:21;25.10;35.40
48515;DHT22;34309;47.260;2.796;2022-08-19T10:15:53;25.10;35.30
48515;DHT22;34309;47.260;2.796;2022-08-19T10:18:20;25.10;35.10
48515;DHT22;34309;47.260;2.796;2022-08-19T10:20:47;25.10;35.30
48515;DHT22;34309;47.260;2.796;2022-08-19T10:23:14;25.10;35.10
48515;DHT22;34309;47.260;2.796;2022-08-19T10:25:40;25.10;34.80
48515;DHT22;34309;47.260;2.796;2022-08-19T10:28:06;25.10;35.30
48515;DHT22;34309;47.260;2.796;2022-08-19T10:30:33;25.10;35.10
48515;DHT22;34309;47.260;2.796;2022-08-19T10:33:00;25.10;35.00
48515;DHT22;34309;47.260;2.796;2022-08-19T10:35:26;25.10;34.80
48515;DHT22;34309;47.260;2.796;2022-08-19T10:37:53;25.10;35.10
48515;DHT22;34309;47.260;2.796;2022-08-19T10:40:18;25.10;35.00
48515;DHT22;34309;47.260;2.796;2022-08-19T10:42:44;25.10;35.10
48515;DHT22;34309;47.260;2.796;2022-08-19T10:45:10;25.10;35.20
48515;DHT22;34309;47.260;2.796;2022-08-19T10:47:36;25.10;35.30
48515;DHT22;34309;47.260;2.796;2022-08-19T10:50:03;25.10;35.00
48515;DHT22;34309;47.260;2.796;2022-08-19T10:52:49;25.10;35.30
48515;DHT22;34309;47.260;2.796;2022-08-19T10:55:15;25.10;35.20
48515;DHT22;34309;47.260;2.796;2022-08-19T10:57:59;25.10;35.30
48515;DHT22;34309;47.260;2.796;2022-08-19T11:00:25;25.10;35.20
48515;DHT22;34309;47.260;2.796;2022-08-19T11:02:51;25.10;35.20
48515;DHT22;34309;47.260;2.796;2022-08-19T11:05:18;25.10;35.20
48515;DHT22;34309;47.260;2.796;2022-08-19T11:07:44;25.10;35.10
48515;DHT22;34309;47.260;2.796;2022-08-19T11:10:12;25.10;35.10
48515;DHT22;34309;47.260;2.796;2022-08-19T11:12:39;25.10;35.90
48515;DHT22;34309;47.260;2.796;2022-08-19T11:15:09;25.10;35.30
48515;DHT22;34309;47.260;2.796;2022-08-19T11:17:39;25.10;35.30
48515;DHT22;34309;47.260;2.796;2022-08-19T11:20:11;25.10;35.30
48515;DHT22;34309;47.260;2.796;2022-08-19T11:22:37;25.10;35.30
48515;DHT22;34309;47.260;2.796;2022-08-19T11:25:04;25.20;35.20
48515;DHT22;34309;47.260;2.796;2022-08-19T11:27:29;25.10;35.10
48515;DHT22;34309;47.260;2.796;2022-08-19T11:29:55;25.20;35.30
48515;DHT22;34309;47.260;2.796;2022-08-19T11:32:21;25.10;35.20
48515;DHT22;34309;47.260;2.796;2022-08-19T11:34:47;25.20;35.30
48515;DHT22;34309;47.260;2.796;2022-08-19T11:37:12;25.20;35.20
48515;DHT22;34309;47.260;2.796;2022-08-19T11:39:38;25.20;35.20
48515;DHT22;34309;47.260;2.796;2022-08-19T11:42:05;25.10;35.30
48515;DHT22;34309;47.260;2.796;2022-08-19T11:44:51;25.20;35.20
48515;DHT22;34309;47.260;2.796;2022-08-19T11:47:17;25.20;35.20
48515;DHT22;34309;47.260;2.796;2022-08-19T11:49:43;25.20;35.30
48515;DHT22;34309;47.260;2.796;2022-08-19T11:52:09;25.20;35.20
48515;DHT22;34309;47.260;2.796;2022-08-19T11:54:35;25.20;35.30
48515;DHT22;34309;47.260;2.796;2022-08-19T11:57:03;25.20;35.10
48515;DHT22;34309;47.260;2.796;2022-08-19T11:59:29;25.20;35.10
48515;DHT22;34309;47.260;2.796;2022-08-19T12:01:55;25.20;35.30
48515;DHT22;34309;47.260;2.796;2022-08-19T12:04:22;25.20;35.20
48515;DHT22;34309;47.260;2.796;2022-08-19T12:06:48;25.20;35.20
48515;DHT22;34309;47.260;2.796;2022-08-19T12:09:16;25.20;35.20
48515;DHT22;34309;47.260;2.796;2022-08-19T12:11:43;25.20;35.40
48515;DHT22;34309;47.260;2.796;2022-08-19T12:14:11;25.20;35.40
48515;DHT22;34309;47.260;2.796;2022-08-19T12:16:39;25.20;35.20
48515;DHT22;34309;47.260;2.796;2022-08-19T12:19:08;25.20;35.40
48515;DHT22;34309;47.260;2.796;2022-08-19T12:21:35;25.20;35.30
48515;DHT22;34309;47.260;2.796;2022-08-19T12:24:03;25.20;35.50
48515;DHT22;34309;47.260;2.796;2022-08-19T12:26:30;25.20;35.70
48515;DHT22;34309;47.260;2.796;2022-08-19T12:28:56;25.20;35.50
48515;DHT22;34309;47.260;2.796;2022-08-19T12:31:26;25.20;35.40
48515;DHT22;34309;47.260;2.796;2022-08-19T12:33:53;25.30;35.40
48515;DHT22;34309;47.260;2.796;2022-08-19T12:36:19;25.20;35.30
48515;DHT22;34309;47.260;2.796;2022-08-19T12:38:45;25.20;35.40
48515;DHT22;34309;47.260;2.796;2022-08-19T12:41:14;25.20;35.40
48515;DHT22;34309;47.260;2.796;2022-08-19T12:43:40;25.20;35.20
48515;DHT22;34309;47.260;2.796;2022-08-19T12:46:10;25.20;35.30
48515;DHT22;34309;47.260;2.796;2022-08-19T12:48:36;25.20;35.30
48515;DHT22;34309;47.260;2.796;2022-08-19T12:51:10;25.20;35.50
48515;DHT22;34309;47.260;2.796;2022-08-19T12:53:36;25.20;35.40
48515;DHT22;34309;47.260;2.796;2022-08-19T12:56:03;25.30;35.60
48515;DHT22;34309;47.260;2.796;2022-08-19T12:58:29;25.30;35.70
48515;DHT22;34309;47.260;2.796;2022-08-19T13:00:55;25.20;35.40
48515;DHT22;34309;47.260;2.796;2022-08-19T13:03:21;25.30;35.40
48515;DHT22;34309;47.260;2.796;2022-08-19T13:05:55;25.30;35.50
48515;DHT22;34309;47.260;2.796;2022-08-19T13:08:21;25.20;35.40
48515;DHT22;34309;47.260;2.796;2022-08-19T13:10:46;25.30;35.50
48515;DHT22;34309;47.260;2.796;2022-08-19T13:13:12;25.20;35.20
48515;DHT22;34309;47.260;2.796;2022-08-19T13:15:40;25.30;35.50
48515;DHT22;34309;47.260;2.796;2022-08-19T13:18:08;25.30;35.30
48515;DHT22;34309;47.260;2.796;2022-08-19T13:20:35;25.30;35.20
48515;DHT22;34309;47.260;2.796;2022-08-19T13:23:01;25.30;35.50
48515;DHT22;34309;47.260;2.796;2022-08-19T13:25:26;25.30;35.50
48515;DHT22;34309;47.260;2.796;2022-08-19T13:27:52;25.20;35.40
48515;DHT22;34309;47.260;2.796;2022-08-19T13:30:19;25.30;35.40
48515;DHT22;34309;47.260;2.796;2022-08-19T13:33:05;25.30;35.50
48515;DHT22;34309;47.260;2.796;2022-08-19T13:35:41;25.30;35.40
48515;DHT22;34309;47.260;2.796;2022-08-19T13:38:08;25.30;35.50
48515;DHT22;34309;47.260;2.796;2022-08-19T13:40:34;25.30;35.60
48515;DHT22;34309;47.260;2.796;2022-08-19T13:43:01;25.30;35.70
48515;DHT22;34309;47.260;2.796;2022-08-19T13:45:28;25.30;35.60
48515;DHT22;34309;47.260;2.796;2022-08-19T13:47:56;25.30;35.50
48515;DHT22;34309;47.260;2.796;2022-08-19T13:50:25;25.30;35.80
48515;DHT22;34309;47.260;2.796;2022-08-19T13:52:52;25.30;35.50
48515;DHT22;34309;47.260;2.796;2022-08-19T13:55:18;25.30;35.40
48515;DHT22;34309;47.260;2.796;2022-08-19T13:57:44;25.30;35.50
48515;DHT22;34309;47.260;2.796;2022-08-19T14:00:14;25.30;35.50
48515;DHT22;34309;47.260;2.796;2022-08-19T14:02:40;25.30;35.20
48515;DHT22;34309;47.260;2.796;2022-08-19T14:05:09;25.30;35.40
48515;DHT22;34309;47.260;2.796;2022-08-19T14:07:35;25.30;35.50
48515;DHT22;34309;47.260;2.796;2022-08-19T14:10:04;25.30;35.60
48515;DHT22;34309;47.260;2.796;2022-08-19T14:12:30;25.30;35.70
48515;DHT22;34309;47.260;2.796;2022-08-19T14:14:59;25.30;35.50
48515;DHT22;34309;47.260;2.796;2022-08-19T14:17:28;25.30;35.70
48515;DHT22;34309;47.260;2.796;2022-08-19T14:19:59;25.30;35.50
48515;DHT22;34309;47.260;2.796;2022-08-19T14:22:34;25.30;36.40
48515;DHT22;34309;47.260;2.796;2022-08-19T14:25:00;25.30;35.70
48515;DHT22;34309;47.260;2.796;2022-08-19T14:27:26;25.30;35.80
48515;DHT22;34309;47.260;2.796;2022-08-19T14:29:52;25.30;35.60
48515;DHT22;34309;47.260;2.796;2022-08-19T14:32:18;25.30;35.80
48515;DHT22;34309;47.260;2.796;2022-08-19T14:34:44;25.30;35.80
48515;DHT22;34309;47.260;2.796;2022-08-19T14:37:14;25.30;35.60
48515;DHT22;34309;47.260;2.796;2022-08-19T14:39:40;25.30;35.70
48515;DHT22;34309;47.260;2.796;2022-08-19T14:42:07;25.30;35.70
48515;DHT22;34309;47.260;2.796;2022-08-19T14:44:34;25.30;35.80
48515;DHT22;34309;47.260;2.796;2022-08-19T14:47:00;25.30;35.80
48515;DHT22;34309;47.260;2.796;2022-08-19T14:49:25;25.30;35.50
48515;DHT22;34309;47.260;2.796;2022-08-19T14:51:51;25.30;35.70
48515;DHT22;34309;47.260;2.796;2022-08-19T14:54:17;25.30;35.50
48515;DHT22;34309;47.260;2.796;2022-08-19T14:56:43;25.40;35.60
48515;DHT22;34309;47.260;2.796;2022-08-19T14:59:08;25.30;35.80
48515;DHT22;34309;47.260;2.796;2022-08-19T15:01:34;25.30;35.70
48515;DHT22;34309;47.260;2.796;2022-08-19T15:04:00;25.40;36.00
48515;DHT22;34309;47.260;2.796;2022-08-19T15:06:28;25.30;36.10
48515;DHT22;34309;47.260;2.796;2022-08-19T15:08:54;25.40;35.70
48515;DHT22;34309;47.260;2.796;2022-08-19T15:11:22;25.40;36.00
48515;DHT22;34309;47.260;2.796;2022-08-19T15:13:49;25.30;36.20
48515;DHT22;34309;47.260;2.796;2022-08-19T15:16:16;25.40;35.60
48515;DHT22;34309;47.260;2.796;2022-08-19T15:18:42;25.40;35.60
48515;DHT22;34309;47.260;2.796;2022-08-19T15:21:14;25.40;35.40
48515;DHT22;34309;47.260;2.796;2022-08-19T15:23:42;25.40;35.50
48515;DHT22;34309;47.260;2.796;2022-08-19T15:26:07;25.40;35.70
48515;DHT22;34309;47.260;2.796;2022-08-19T15:28:34;25.30;35.70
48515;DHT22;34309;47.260;2.796;2022-08-19T15:31:00;25.40;35.70
48515;DHT22;34309;47.260;2.796;2022-08-19T15:33:26;25.30;35.50
48515;DHT22;34309;47.260;2.796;2022-08-19T15:35:52;25.40;36.00
48515;DHT22;34309;47.260;2.796;2022-08-19T15:38:19;25.40;36.00
48515;DHT22;34309;47.260;2.796;2022-08-19T15:40:47;25.40;36.00
48515;DHT22;34309;47.260;2.796;2022-08-19T15:43:17;25.40;35.80
48515;DHT22;34309;47.260;2.796;2022-08-19T15:45:44;25.40;36.00